sensor_id;sensor_type;location;lat;lon;timestamp;pressure;altitude;pressure_sealevel;temperature;humidity
74834;BME280;63361;52.384;20.930;2022-11-03T00:01:50;101259.25;;;6.63;100.00
74834;BME280;63361;52.384;20.930;2022-11-03T00:04:17;101259.91;;;6.47;100.00
74834;BME280;63361;52.384;20.930;2022-11-03T00:06:47;101260.88;;;6.52;100.00
74834;BME280;63361;52.384;20.930;2022-11-03T00:09:14;101259.78;;;6.42;100.00
74834;BME280;63361;52.384;20.930;2022-11-03T00:11:41;101257.22;;;6.23;100.00
74834;BME280;63361;52.384;20.930;2022-11-03T00:14:08;101262.91;;;6.27;100.00
74834;BME280;63361;52.384;20.930;2022-11-03T00:16:34;101266.38;;;6.16;100.00
74834;BME280;63361;52.384;20.930;2022-11-03T00:19:00;101248.44;;;6.05;100.00
74834;BME280;63361;52.384;20.930;2022-11-03T00:21:26;101271.31;;;6.19;100.00
74834;BME280;63361;52.384;20.930;2022-11-03T00:23:52;101279.56;;;6.17;100.00
74834;BME280;63361;52.384;20.930;2022-11-03T00:26:28;101271.88;;;6.09;100.00
74834;BME280;63361;52.384;20.930;2022-11-03T00:28:56;101272.31;;;6.06;100.00
74834;BME280;63361;52.384;20.930;2022-11-03T00:31:26;101267.84;;;6.00;100.00
74834;BME280;63361;52.384;20.930;2022-11-03T00:33:52;101265.78;;;6.14;100.00
74834;BME280;63361;52.384;20.930;2022-11-03T00:36:20;101263.66;;;5.92;100.00
74834;BME280;63361;52.384;20.930;2022-11-03T00:38:46;101277.75;;;5.99;100.00
74834;BME280;63361;52.384;20.930;2022-11-03T00:41:12;101258.19;;;5.81;100.00
74834;BME280;63361;52.384;20.930;2022-11-03T00:43:38;101263.78;;;5.97;100.00
74834;BME280;63361;52.384;20.930;2022-11-03T00:46:05;101281.25;;;5.82;100.00
74834;BME280;63361;52.384;20.930;2022-11-03T00:48:31;101280.59;;;5.86;100.00
74834;BME280;63361;52.384;20.930;2022-11-03T00:53:34;101259.91;;;5.63;100.00
74834;BME280;63361;52.384;20.930;2022-11-03T00:56:00;101281.16;;;5.58;100.00
74834;BME280;63361;52.384;20.930;2022-11-03T00:58:26;101277.25;;;5.43;100.00
74834;BME280;63361;52.384;20.930;2022-11-03T01:01:05;101286.16;;;5.55;100.00
74834;BME280;63361;52.384;20.930;2022-11-03T01:03:33;101291.44;;;5.43;100.00
74834;BME280;63361;52.384;20.930;2022-11-03T01:05:59;101288.03;;;5.36;100.00
74834;BME280;63361;52.384;20.930;2022-11-03T01:08:43;101271.97;;;5.36;100.00
74834;BME280;63361;52.384;20.930;2022-11-03T01:11:13;101290.56;;;5.31;100.00
74834;BME280;63361;52.384;20.930;2022-11-03T01:13:58;101292.50;;;5.42;100.00
74834;BME280;63361;52.384;20.930;2022-11-03T01:16:24;101290.34;;;5.14;100.00
74834;BME280;63361;52.384;20.930;2022-11-03T01:18:49;101291.56;;;4.93;100.00
74834;BME280;63361;52.384;20.930;2022-11-03T01:21:15;101302.28;;;5.12;100.00
74834;BME280;63361;52.384;20.930;2022-11-03T01:23:41;101293.38;;;5.00;100.00
74834;BME280;63361;52.384;20.930;2022-11-03T01:26:08;101303.09;;;4.94;100.00
74834;BME280;63361;52.384;20.930;2022-11-03T01:28:35;101288.19;;;4.80;100.00
74834;BME280;63361;52.384;20.930;2022-11-03T01:31:09;101300.19;;;4.95;100.00
74834;BME280;63361;52.384;20.930;2022-11-03T01:33:36;101293.19;;;4.94;100.00
74834;BME280;63361;52.384;20.930;2022-11-03T01:36:01;101291.25;;;4.83;100.00
74834;BME280;63361;52.384;20.930;2022-11-03T01:38:31;101304.91;;;4.75;100.00
74834;BME280;63361;52.384;20.930;2022-11-03T01:40:56;101285.81;;;4.72;100.00
74834;BME280;63361;52.384;20.930;2022-11-03T01:43:23;101314.13;;;4.79;100.00
74834;BME280;63361;52.384;20.930;2022-11-03T01:45:53;101294.66;;;4.72;100.00
74834;BME280;63361;52.384;20.930;2022-11-03T01:48:23;101297.66;;;4.82;100.00
74834;BME280;63361;52.384;20.930;2022-11-03T01:50:48;101305.84;;;4.87;100.00
74834;BME280;63361;52.384;20.930;2022-11-03T01:53:16;101304.81;;;4.88;100.00
74834;BME280;63361;52.384;20.930;2022-11-03T01:55:42;101303.00;;;4.82;100.00
74834;BME280;63361;52.384;20.930;2022-11-03T01:58:13;101291.22;;;4.65;100.00
74834;BME280;63361;52.384;20.930;2022-11-03T02:00:45;101306.44;;;4.65;100.00
74834;BME280;63361;52.384;20.930;2022-11-03T02:03:21;101297.31;;;4.47;100.00
74834;BME280;63361;52.384;20.930;2022-11-03T02:05:48;101290.84;;;4.30;100.00
74834;BME280;63361;52.384;20.930;2022-11-03T02:08:30;101295.56;;;4.35;100.00
74834;BME280;63361;52.384;20.930;2022-11-03T02:10:58;101290.03;;;4.30;100.00
74834;BME280;63361;52.384;20.930;2022-11-03T02:13:25;101302.44;;;4.24;100.00
74834;BME280;63361;52.384;20.930;2022-11-03T02:15:52;101294.75;;;4.34;100.00
74834;BME280;63361;52.384;20.930;2022-11-03T02:18:23;101308.19;;;4.52;100.00
74834;BME280;63361;52.384;20.930;2022-11-03T02:20:58;101297.16;;;4.42;100.00
74834;BME280;63361;52.384;20.930;2022-11-03T02:23:40;101303.16;;;4.38;100.00
74834;BME280;63361;52.384;20.930;2022-11-03T02:26:10;101303.69;;;4.46;100.00
74834;BME280;63361;52.384;20.930;2022-11-03T02:28:36;101317.28;;;4.45;100.00
74834;BME280;63361;52.384;20.930;2022-11-03T02:31:12;101314.16;;;4.48;100.00
74834;BME280;63361;52.384;20.930;2022-11-03T02:33:59;101307.47;;;4.39;100.00
74834;BME280;63361;52.384;20.930;2022-11-03T02:36:42;101307.66;;;4.12;100.00
74834;BME280;63361;52.384;20.930;2022-11-03T02:39:17;101310.97;;;4.08;100.00
74834;BME280;63361;52.384;20.930;2022-11-03T02:41:45;101320.34;;;4.17;100.00
74834;BME280;63361;52.384;20.930;2022-11-03T02:44:17;101296.66;;;3.96;100.00
74834;BME280;63361;52.384;20.930;2022-11-03T02:46:46;101306.03;;;4.05;100.00
74834;BME280;63361;52.384;20.930;2022-11-03T02:49:13;101315.91;;;4.04;100.00
74834;BME280;63361;52.384;20.930;2022-11-03T02:51:39;101310.44;;;3.93;100.00
74834;BME280;63361;52.384;20.930;2022-11-03T02:54:18;101314.25;;;4.03;100.00
74834;BME280;63361;52.384;20.930;2022-11-03T02:56:50;101328.03;;;4.00;100.00
74834;BME280;63361;52.384;20.930;2022-11-03T02:59:21;101315.56;;;3.87;100.00
74834;BME280;63361;52.384;20.930;2022-11-03T03:02:02;101327.28;;;3.93;100.00
74834;BME280;63361;52.384;20.930;2022-11-03T03:04:34;101339.63;;;3.87;100.00
74834;BME280;63361;52.384;20.930;2022-11-03T03:07:04;101322.84;;;3.74;100.00
74834;BME280;63361;52.384;20.930;2022-11-03T03:09:34;101316.47;;;3.68;100.00
74834;BME280;63361;52.384;20.930;2022-11-03T03:12:02;101317.34;;;3.56;100.00
74834;BME280;63361;52.384;20.930;2022-11-03T03:14:34;101334.13;;;3.69;100.00
74834;BME280;63361;52.384;20.930;2022-11-03T03:17:14;101333.38;;;3.62;100.00
74834;BME280;63361;52.384;20.930;2022-11-03T03:19:49;101337.06;;;3.54;100.00
74834;BME280;63361;52.384;20.930;2022-11-03T03:22:23;101347.34;;;3.58;100.00
74834;BME280;63361;52.384;20.930;2022-11-03T03:27:19;101321.72;;;3.43;100.00
74834;BME280;63361;52.384;20.930;2022-11-03T03:29:53;101332.53;;;3.62;100.00
74834;BME280;63361;52.384;20.930;2022-11-03T03:32:23;101336.28;;;3.47;100.00
74834;BME280;63361;52.384;20.930;2022-11-03T03:34:50;101350.63;;;3.53;100.00
74834;BME280;63361;52.384;20.930;2022-11-03T03:37:18;101340.34;;;3.57;100.00
74834;BME280;63361;52.384;20.930;2022-11-03T03:39:51;101354.72;;;3.56;100.00
74834;BME280;63361;52.384;20.930;2022-11-03T03:42:19;101341.22;;;3.44;100.00
74834;BME280;63361;52.384;20.930;2022-11-03T03:44:45;101351.28;;;3.42;100.00
74834;BME280;63361;52.384;20.930;2022-11-03T03:47:22;101352.72;;;3.38;100.00
74834;BME280;63361;52.384;20.930;2022-11-03T03:49:49;101362.59;;;3.31;100.00
74834;BME280;63361;52.384;20.930;2022-11-03T03:52:14;101359.31;;;3.22;100.00
74834;BME280;63361;52.384;20.930;2022-11-03T03:54:40;101362.19;;;3.27;100.00
74834;BME280;63361;52.384;20.930;2022-11-03T03:57:12;101368.31;;;3.41;100.00
74834;BME280;63361;52.384;20.930;2022-11-03T03:59:40;101369.78;;;3.30;100.00
74834;BME280;63361;52.384;20.930;2022-11-03T04:02:05;101369.41;;;3.20;100.00
74834;BME280;63361;52.384;20.930;2022-11-03T04:04:31;101362.63;;;3.11;100.00
74834;BME280;63361;52.384;20.930;2022-11-03T04:06:56;101355.25;;;3.00;100.00
74834;BME280;63361;52.384;20.930;2022-11-03T04:09:40;101353.00;;;2.97;100.00
74834;BME280;63361;52.384;20.930;2022-11-03T04:12:07;101359.34;;;3.09;100.00
74834;BME280;63361;52.384;20.930;2022-11-03T04:14:51;101362.59;;;3.24;100.00
74834;BME280;63361;52.384;20.930;2022-11-03T04:17:35;101363.63;;;3.30;100.00
74834;BME280;63361;52.384;20.930;2022-11-03T04:20:20;101349.66;;;3.28;100.00
74834;BME280;63361;52.384;20.930;2022-11-03T04:23:04;101372.69;;;3.15;100.00
74834;BME280;63361;52.384;20.930;2022-11-03T04:25:29;101372.44;;;3.30;100.00
74834;BME280;63361;52.384;20.930;2022-11-03T04:27:55;101358.69;;;3.27;100.00
74834;BME280;63361;52.384;20.930;2022-11-03T04:30:20;101370.19;;;3.27;100.00
74834;BME280;63361;52.384;20.930;2022-11-03T04:32:50;101364.25;;;3.25;100.00
74834;BME280;63361;52.384;20.930;2022-11-03T04:35:22;101373.47;;;3.23;100.00
74834;BME280;63361;52.384;20.930;2022-11-03T04:37:52;101374.91;;;3.25;100.00
74834;BME280;63361;52.384;20.930;2022-11-03T04:40:18;101365.09;;;3.12;100.00
74834;BME280;63361;52.384;20.930;2022-11-03T04:42:44;101376.56;;;3.13;100.00
74834;BME280;63361;52.384;20.930;2022-11-03T04:45:23;101375.97;;;3.17;100.00
74834;BME280;63361;52.384;20.930;2022-11-03T04:47:51;101376.75;;;3.31;100.00
74834;BME280;63361;52.384;20.930;2022-11-03T04:50:19;101381.44;;;3.42;100.00
74834;BME280;63361;52.384;20.930;2022-11-03T04:52:52;101373.03;;;3.39;100.00
74834;BME280;63361;52.384;20.930;2022-11-03T04:55:19;101379.03;;;3.34;100.00
74834;BME280;63361;52.384;20.930;2022-11-03T04:57:44;101368.34;;;3.28;100.00
74834;BME280;63361;52.384;20.930;2022-11-03T05:00:17;101377.75;;;3.37;100.00
74834;BME280;63361;52.384;20.930;2022-11-03T05:02:45;101375.47;;;3.53;100.00
74834;BME280;63361;52.384;20.930;2022-11-03T05:05:17;101378.56;;;3.50;100.00
74834;BME280;63361;52.384;20.930;2022-11-03T05:07:45;101361.78;;;3.30;100.00
74834;BME280;63361;52.384;20.930;2022-11-03T05:10:28;101375.75;;;3.19;100.00
74834;BME280;63361;52.384;20.930;2022-11-03T05:12:54;101380.25;;;3.25;100.00
74834;BME280;63361;52.384;20.930;2022-11-03T05:15:40;101384.16;;;3.16;100.00
74834;BME280;63361;52.384;20.930;2022-11-03T05:18:17;101383.16;;;3.17;100.00
74834;BME280;63361;52.384;20.930;2022-11-03T05:20:52;101372.28;;;3.05;100.00
74834;BME280;63361;52.384;20.930;2022-11-03T05:23:19;101357.91;;;3.06;100.00
74834;BME280;63361;52.384;20.930;2022-11-03T05:25:50;101377.38;;;3.07;100.00
74834;BME280;63361;52.384;20.930;2022-11-03T05:28:36;101391.31;;;3.22;100.00
74834;BME280;63361;52.384;20.930;2022-11-03T05:31:15;101384.34;;;3.28;100.00
74834;BME280;63361;52.384;20.930;2022-11-03T05:33:42;101390.72;;;3.33;100.00
74834;BME280;63361;52.384;20.930;2022-11-03T05:36:13;101387.03;;;3.28;100.00
74834;BME280;63361;52.384;20.930;2022-11-03T05:38:41;101383.34;;;3.29;100.00
74834;BME280;63361;52.384;20.930;2022-11-03T05:41:35;101394.41;;;3.32;100.00
74834;BME280;63361;52.384;20.930;2022-11-03T05:44:20;101391.75;;;3.32;100.00
74834;BME280;63361;52.384;20.930;2022-11-03T05:46:47;101379.84;;;3.22;100.00
74834;BME280;63361;52.384;20.930;2022-11-03T05:49:13;101372.47;;;3.10;100.00
74834;BME280;63361;52.384;20.930;2022-11-03T05:51:41;101369.38;;;3.27;100.00
74834;BME280;63361;52.384;20.930;2022-11-03T05:54:31;101398.28;;;3.43;100.00
74834;BME280;63361;52.384;20.930;2022-11-03T05:57:00;101367.13;;;3.30;100.00
74834;BME280;63361;52.384;20.930;2022-11-03T05:59:27;101403.19;;;3.59;100.00
74834;BME280;63361;52.384;20.930;2022-11-03T06:01:54;101384.94;;;3.49;100.00
74834;BME280;63361;52.384;20.930;2022-11-03T06:04:33;101403.41;;;3.51;100.00
74834;BME280;63361;52.384;20.930;2022-11-03T06:07:04;101403.19;;;3.59;100.00
74834;BME280;63361;52.384;20.930;2022-11-03T06:09:32;101402.31;;;3.72;100.00
74834;BME280;63361;52.384;20.930;2022-11-03T06:12:00;101395.34;;;3.77;100.00
74834;BME280;63361;52.384;20.930;2022-11-03T06:14:29;101394.66;;;3.88;100.00
74834;BME280;63361;52.384;20.930;2022-11-03T06:19:34;101398.22;;;4.20;100.00
74834;BME280;63361;52.384;20.930;2022-11-03T06:22:10;101405.22;;;5.34;100.00
74834;BME280;63361;52.384;20.930;2022-11-03T06:24:36;101388.38;;;6.78;100.00
74834;BME280;63361;52.384;20.930;2022-11-03T06:27:02;101403.91;;;7.81;100.00
74834;BME280;63361;52.384;20.930;2022-11-03T06:29:29;101400.81;;;8.41;100.00
74834;BME280;63361;52.384;20.930;2022-11-03T06:31:56;101403.06;;;8.61;96.96
74834;BME280;63361;52.384;20.930;2022-11-03T06:34:43;101405.72;;;9.06;94.18
74834;BME280;63361;52.384;20.930;2022-11-03T06:39:41;101405.88;;;9.71;88.42
74834;BME280;63361;52.384;20.930;2022-11-03T06:42:10;101421.41;;;10.25;82.98
74834;BME280;63361;52.384;20.930;2022-11-03T06:44:43;101422.34;;;10.89;81.02
74834;BME280;63361;52.384;20.930;2022-11-03T06:47:18;101417.09;;;11.46;76.11
74834;BME280;63361;52.384;20.930;2022-11-03T06:49:45;101402.28;;;12.01;76.04
74834;BME280;63361;52.384;20.930;2022-11-03T06:52:47;101421.09;;;12.43;72.03
74834;BME280;63361;52.384;20.930;2022-11-03T06:55:30;101403.31;;;13.28;67.77
74834;BME280;63361;52.384;20.930;2022-11-03T06:58:13;101409.22;;;13.46;66.51
74834;BME280;63361;52.384;20.930;2022-11-03T07:00:41;101410.66;;;14.07;64.44
74834;BME280;63361;52.384;20.930;2022-11-03T07:05:39;101412.66;;;14.85;61.44
74834;BME280;63361;52.384;20.930;2022-11-03T07:10:45;101413.38;;;15.30;62.53
74834;BME280;63361;52.384;20.930;2022-11-03T07:13:18;101410.06;;;16.09;57.41
74834;BME280;63361;52.384;20.930;2022-11-03T07:15:46;101405.25;;;17.14;53.22
74834;BME280;63361;52.384;20.930;2022-11-03T07:18:20;101399.69;;;18.20;53.33
74834;BME280;63361;52.384;20.930;2022-11-03T07:20:47;101400.81;;;18.91;49.15
74834;BME280;63361;52.384;20.930;2022-11-03T07:23:16;101390.63;;;17.70;52.06
74834;BME280;63361;52.384;20.930;2022-11-03T07:25:44;101389.06;;;17.36;51.40
74834;BME280;63361;52.384;20.930;2022-11-03T07:28:13;101399.13;;;18.59;49.38
74834;BME280;63361;52.384;20.930;2022-11-03T07:30:39;101391.88;;;19.61;47.04
74834;BME280;63361;52.384;20.930;2022-11-03T07:33:15;101396.69;;;20.03;45.50
74834;BME280;63361;52.384;20.930;2022-11-03T07:35:44;101397.09;;;20.62;46.49
74834;BME280;63361;52.384;20.930;2022-11-03T07:38:15;101401.47;;;20.72;43.22
74834;BME280;63361;52.384;20.930;2022-11-03T07:40:42;101385.16;;;20.50;42.45
74834;BME280;63361;52.384;20.930;2022-11-03T07:43:17;101394.75;;;19.95;43.87
74834;BME280;63361;52.384;20.930;2022-11-03T07:45:54;101399.78;;;21.14;42.76
74834;BME280;63361;52.384;20.930;2022-11-03T07:50:54;101395.94;;;21.62;40.12
74834;BME280;63361;52.384;20.930;2022-11-03T07:53:40;101391.09;;;21.67;40.25
74834;BME280;63361;52.384;20.930;2022-11-03T07:56:17;101395.47;;;21.60;41.67
74834;BME280;63361;52.384;20.930;2022-11-03T07:58:42;101391.44;;;21.87;39.53
74834;BME280;63361;52.384;20.930;2022-11-03T08:01:26;101388.47;;;21.71;40.39
74834;BME280;63361;52.384;20.930;2022-11-03T08:03:55;101374.53;;;21.47;39.50
74834;BME280;63361;52.384;20.930;2022-11-03T08:06:21;101397.84;;;21.32;40.03
74834;BME280;63361;52.384;20.930;2022-11-03T08:08:47;101395.06;;;22.37;37.67
74834;BME280;63361;52.384;20.930;2022-11-03T08:11:12;101384.28;;;22.65;36.97
74834;BME280;63361;52.384;20.930;2022-11-03T08:13:37;101372.50;;;22.44;37.00
74834;BME280;63361;52.384;20.930;2022-11-03T08:16:03;101379.47;;;22.83;36.24
74834;BME280;63361;52.384;20.930;2022-11-03T08:18:28;101378.00;;;23.31;35.42
74834;BME280;63361;52.384;20.930;2022-11-03T08:20:54;101381.81;;;23.99;34.22
74834;BME280;63361;52.384;20.930;2022-11-03T08:23:19;101368.75;;;24.76;33.48
74834;BME280;63361;52.384;20.930;2022-11-03T08:25:45;101370.22;;;23.69;34.23
74834;BME280;63361;52.384;20.930;2022-11-03T08:28:10;101377.59;;;23.90;33.81
74834;BME280;63361;52.384;20.930;2022-11-03T08:30:35;101375.22;;;24.40;32.72
74834;BME280;63361;52.384;20.930;2022-11-03T08:33:01;101371.97;;;25.22;32.81
74834;BME280;63361;52.384;20.930;2022-11-03T08:35:26;101374.41;;;25.71;31.42
74834;BME280;63361;52.384;20.930;2022-11-03T08:37:52;101359.16;;;25.14;31.77
74834;BME280;63361;52.384;20.930;2022-11-03T08:40:17;101372.19;;;25.45;31.52
74834;BME280;63361;52.384;20.930;2022-11-03T08:42:43;101362.75;;;24.59;32.18
74834;BME280;63361;52.384;20.930;2022-11-03T08:45:08;101372.66;;;24.75;32.50
74834;BME280;63361;52.384;20.930;2022-11-03T08:47:34;101365.84;;;24.57;32.59
74834;BME280;63361;52.384;20.930;2022-11-03T08:49:59;101369.66;;;23.88;34.14
74834;BME280;63361;52.384;20.930;2022-11-03T08:52:25;101363.84;;;24.30;33.44
74834;BME280;63361;52.384;20.930;2022-11-03T08:54:50;101363.13;;;23.80;34.50
74834;BME280;63361;52.384;20.930;2022-11-03T08:57:16;101365.66;;;23.61;34.37
74834;BME280;63361;52.384;20.930;2022-11-03T08:59:41;101366.34;;;23.58;35.19
74834;BME280;63361;52.384;20.930;2022-11-03T09:02:06;101364.25;;;22.44;36.52
74834;BME280;63361;52.384;20.930;2022-11-03T09:04:32;101361.31;;;23.15;35.94
74834;BME280;63361;52.384;20.930;2022-11-03T09:06:57;101362.66;;;23.54;34.87
74834;BME280;63361;52.384;20.930;2022-11-03T09:09:22;101357.63;;;23.11;35.51
74834;BME280;63361;52.384;20.930;2022-11-03T09:11:48;101348.28;;;22.58;35.92
74834;BME280;63361;52.384;20.930;2022-11-03T09:14:13;101352.97;;;23.36;35.25
74834;BME280;63361;52.384;20.930;2022-11-03T09:16:39;101361.41;;;23.76;34.99
74834;BME280;63361;52.384;20.930;2022-11-03T09:19:04;101360.47;;;23.60;35.55
74834;BME280;63361;52.384;20.930;2022-11-03T09:21:29;101353.09;;;23.88;34.61
74834;BME280;63361;52.384;20.930;2022-11-03T09:23:55;101343.78;;;23.32;34.54
74834;BME280;63361;52.384;20.930;2022-11-03T09:26:24;101361.38;;;23.88;34.88
74834;BME280;63361;52.384;20.930;2022-11-03T09:28:49;101361.38;;;23.88;34.50
74834;BME280;63361;52.384;20.930;2022-11-03T09:31:15;101360.91;;;23.49;34.82
74834;BME280;63361;52.384;20.930;2022-11-03T09:33:40;101354.59;;;23.37;35.63
74834;BME280;63361;52.384;20.930;2022-11-03T09:36:06;101350.38;;;23.52;34.92
74834;BME280;63361;52.384;20.930;2022-11-03T09:38:31;101347.47;;;23.48;35.61
74834;BME280;63361;52.384;20.930;2022-11-03T09:40:57;101346.19;;;24.06;34.50
74834;BME280;63361;52.384;20.930;2022-11-03T09:43:23;101339.19;;;24.49;34.03
74834;BME280;63361;52.384;20.930;2022-11-03T09:45:48;101341.22;;;25.23;32.38
74834;BME280;63361;52.384;20.930;2022-11-03T09:48:13;101337.31;;;25.24;32.41
74834;BME280;63361;52.384;20.930;2022-11-03T09:50:39;101332.13;;;25.23;31.95
74834;BME280;63361;52.384;20.930;2022-11-03T09:53:05;101332.84;;;24.76;32.77
74834;BME280;63361;52.384;20.930;2022-11-03T09:55:32;101337.13;;;24.46;33.23
74834;BME280;63361;52.384;20.930;2022-11-03T09:58:00;101325.16;;;24.02;34.31
74834;BME280;63361;52.384;20.930;2022-11-03T10:00:26;101323.13;;;23.50;34.78
74834;BME280;63361;52.384;20.930;2022-11-03T10:02:52;101319.25;;;21.77;37.54
74834;BME280;63361;52.384;20.930;2022-11-03T10:05:25;101320.97;;;22.32;37.61
74834;BME280;63361;52.384;20.930;2022-11-03T10:07:55;101308.97;;;21.87;38.41
74834;BME280;63361;52.384;20.930;2022-11-03T10:10:21;101311.28;;;21.17;39.04
74834;BME280;63361;52.384;20.930;2022-11-03T10:12:48;101310.22;;;22.60;37.57
74834;BME280;63361;52.384;20.930;2022-11-03T10:15:17;101302.09;;;21.81;38.41
74834;BME280;63361;52.384;20.930;2022-11-03T10:17:44;101304.47;;;22.12;37.96
74834;BME280;63361;52.384;20.930;2022-11-03T10:20:12;101300.97;;;22.77;36.69
74834;BME280;63361;52.384;20.930;2022-11-03T10:22:39;101299.66;;;22.08;37.40
74834;BME280;63361;52.384;20.930;2022-11-03T10:25:34;101311.88;;;22.53;37.52
74834;BME280;63361;52.384;20.930;2022-11-03T10:33:33;101297.16;;;22.16;37.54
74834;BME280;63361;52.384;20.930;2022-11-03T10:36:01;101279.31;;;22.22;37.24
74834;BME280;63361;52.384;20.930;2022-11-03T10:38:31;101297.03;;;22.12;37.50
74834;BME280;63361;52.384;20.930;2022-11-03T10:41:16;101299.97;;;22.28;37.19
74834;BME280;63361;52.384;20.930;2022-11-03T10:46:27;101283.81;;;22.05;36.93
74834;BME280;63361;52.384;20.930;2022-11-03T10:49:19;101288.28;;;21.89;37.68
74834;BME280;63361;52.384;20.930;2022-11-03T10:51:53;101286.31;;;21.39;37.88
74834;BME280;63361;52.384;20.930;2022-11-03T10:54:21;101284.94;;;22.04;37.24
74834;BME280;63361;52.384;20.930;2022-11-03T10:56:47;101269.31;;;22.17;36.61
74834;BME280;63361;52.384;20.930;2022-11-03T11:01:43;101270.06;;;22.59;36.00
74834;BME280;63361;52.384;20.930;2022-11-03T11:04:13;101260.91;;;22.67;35.94
74834;BME280;63361;52.384;20.930;2022-11-03T11:06:39;101258.00;;;22.64;35.09
74834;BME280;63361;52.384;20.930;2022-11-03T11:09:08;101261.75;;;22.47;35.17
74834;BME280;63361;52.384;20.930;2022-11-03T11:11:34;101259.13;;;22.96;35.48
74834;BME280;63361;52.384;20.930;2022-11-03T11:14:38;101253.63;;;22.51;36.45
74834;BME280;63361;52.384;20.930;2022-11-03T11:20:36;101255.19;;;21.27;37.77
74834;BME280;63361;52.384;20.930;2022-11-03T11:28:40;101237.25;;;20.91;37.78
74834;BME280;63361;52.384;20.930;2022-11-03T11:42:17;101208.47;;;20.33;38.88
74834;BME280;63361;52.384;20.930;2022-11-03T11:52:31;101205.06;;;19.33;40.90
74834;BME280;63361;52.384;20.930;2022-11-03T11:54:58;101201.91;;;18.60;39.72
74834;BME280;63361;52.384;20.930;2022-11-03T11:57:24;101199.63;;;18.09;41.99
74834;BME280;63361;52.384;20.930;2022-11-03T11:59:49;101196.25;;;17.68;43.09
74834;BME280;63361;52.384;20.930;2022-11-03T12:02:22;101206.81;;;17.06;45.41
74834;BME280;63361;52.384;20.930;2022-11-03T12:04:49;101207.22;;;16.85;45.45
74834;BME280;63361;52.384;20.930;2022-11-03T12:07:31;101191.47;;;16.50;46.00
74834;BME280;63361;52.384;20.930;2022-11-03T12:10:07;101199.44;;;16.93;45.02
74834;BME280;63361;52.384;20.930;2022-11-03T12:12:32;101177.97;;;16.59;45.92
74834;BME280;63361;52.384;20.930;2022-11-03T12:14:58;101193.88;;;17.11;44.77
74834;BME280;63361;52.384;20.930;2022-11-03T12:19:50;101190.84;;;17.63;42.54
74834;BME280;63361;52.384;20.930;2022-11-03T12:25:32;101188.66;;;17.51;44.09
74834;BME280;63361;52.384;20.930;2022-11-03T12:27:56;101173.84;;;17.79;42.36
74834;BME280;63361;52.384;20.930;2022-11-03T12:30:21;101172.97;;;17.92;40.87
74834;BME280;63361;52.384;20.930;2022-11-03T12:32:47;101170.69;;;17.86;41.62
74834;BME280;63361;52.384;20.930;2022-11-03T12:35:13;101169.81;;;17.63;41.96
74834;BME280;63361;52.384;20.930;2022-11-03T12:37:39;101178.69;;;17.33;43.39
74834;BME280;63361;52.384;20.930;2022-11-03T12:40:06;101159.41;;;16.61;44.49
74834;BME280;63361;52.384;20.930;2022-11-03T12:42:31;101172.84;;;15.92;46.67
74834;BME280;63361;52.384;20.930;2022-11-03T12:44:57;101170.94;;;15.93;47.47
74834;BME280;63361;52.384;20.930;2022-11-03T12:47:22;101172.81;;;16.11;46.50
74834;BME280;63361;52.384;20.930;2022-11-03T12:49:48;101173.38;;;16.27;45.92
74834;BME280;63361;52.384;20.930;2022-11-03T12:52:13;101172.38;;;16.50;46.07
74834;BME280;63361;52.384;20.930;2022-11-03T12:54:39;101168.13;;;16.90;45.12
74834;BME280;63361;52.384;20.930;2022-11-03T12:57:06;101175.06;;;17.23;44.43
74834;BME280;63361;52.384;20.930;2022-11-03T12:59:31;101164.44;;;17.85;43.93
74834;BME280;63361;52.384;20.930;2022-11-03T13:01:56;101155.13;;;17.86;42.68
74834;BME280;63361;52.384;20.930;2022-11-03T13:04:22;101167.06;;;18.21;42.68
74834;BME280;63361;52.384;20.930;2022-11-03T13:06:47;101164.75;;;18.37;42.32
74834;BME280;63361;52.384;20.930;2022-11-03T13:09:12;101160.16;;;18.77;41.97
74834;BME280;63361;52.384;20.930;2022-11-03T13:11:38;101165.34;;;18.96;40.85
74834;BME280;63361;52.384;20.930;2022-11-03T13:14:22;101155.25;;;19.05;39.42
74834;BME280;63361;52.384;20.930;2022-11-03T13:16:47;101165.13;;;19.23;40.24
74834;BME280;63361;52.384;20.930;2022-11-03T13:19:12;101153.16;;;19.11;39.59
74834;BME280;63361;52.384;20.930;2022-11-03T13:21:38;101156.50;;;18.90;39.94
74834;BME280;63361;52.384;20.930;2022-11-03T13:24:03;101153.81;;;19.16;39.40
74834;BME280;63361;52.384;20.930;2022-11-03T13:26:29;101153.16;;;19.02;39.27
74834;BME280;63361;52.384;20.930;2022-11-03T13:28:54;101141.66;;;18.52;40.65
74834;BME280;63361;52.384;20.930;2022-11-03T13:31:20;101153.72;;;18.51;40.92
74834;BME280;63361;52.384;20.930;2022-11-03T13:33:45;101145.13;;;18.66;39.44
74834;BME280;63361;52.384;20.930;2022-11-03T13:36:10;101142.34;;;18.57;40.24
74834;BME280;63361;52.384;20.930;2022-11-03T13:38:36;101137.34;;;18.99;39.92
74834;BME280;63361;52.384;20.930;2022-11-03T13:41:01;101137.72;;;19.15;39.20
74834;BME280;63361;52.384;20.930;2022-11-03T13:43:26;101138.91;;;19.57;38.47
74834;BME280;63361;52.384;20.930;2022-11-03T13:45:53;101119.53;;;19.45;38.51
74834;BME280;63361;52.384;20.930;2022-11-03T13:48:18;101125.00;;;19.19;39.15
74834;BME280;63361;52.384;20.930;2022-11-03T13:50:44;101123.16;;;18.49;40.73
74834;BME280;63361;52.384;20.930;2022-11-03T13:53:10;101131.19;;;18.14;42.18
74834;BME280;63361;52.384;20.930;2022-11-03T13:55:35;101123.69;;;17.98;42.27